Time;durP1;ratioP1;P1;durP2;ratioP2;P2;SDS_P1;SDS_P2;PMS_P1;PMS_P2;Temp;Humidity;BMP_temperature;BMP_pressure;BME280_temperature;BME280_humidity;BME280_pressure;Samples;Min_cycle;Max_cycle;Signal;HPM_P1;HPM_P2
2023/08/28 00:00:42;;;;;;;1.85;0.52;;;45.70;23.00;;;;;;5052571;28;20481;-60
2023/08/28 00:03:08;;;;;;;0.32;0.32;;;45.70;23.30;;;;;;5048898;28;20064;-61
2023/08/28 00:05:35;;;;;;;1.38;0.60;;;45.70;23.00;;;;;;5048218;28;20480;-62
2023/08/28 00:08:02;;;;;;;3.53;0.50;;;45.60;22.60;;;;;;5053857;28;20544;-60
2023/08/28 00:10:28;;;;;;;0.60;0.52;;;45.60;23.90;;;;;;5056821;28;20427;-62
2023/08/28 00:12:55;;;;;;;0.93;0.60;;;45.50;23.50;;;;;;5048680;28;20356;-63
2023/08/28 00:15:22;;;;;;;4.72;1.00;;;45.50;22.70;;;;;;5048145;28;20017;-62
2023/08/28 00:17:48;;;;;;;0.70;0.50;;;45.40;23.60;;;;;;5049666;28;20017;-60
2023/08/28 00:20:16;;;;;;;0.95;0.68;;;45.30;23.60;;;;;;5047757;28;20461;-59
2023/08/28 00:22:43;;;;;;;1.55;0.60;;;45.30;23.70;;;;;;5049843;28;20504;-60
2023/08/28 00:25:09;;;;;;;1.05;0.50;;;45.20;23.70;;;;;;5054029;28;20051;-60
2023/08/28 00:27:36;;;;;;;0.82;0.60;;;45.20;24.10;;;;;;5047442;28;21942;-58
2023/08/28 00:30:06;;;;;;;1.25;0.70;;;45.10;23.50;;;;;;5058705;28;20023;-61
2023/08/28 00:32:34;;;;;;;2.25;0.60;;;45.00;23.80;;;;;;5049004;28;20468;-62
2023/08/28 00:35:00;;;;;;;7.05;0.80;;;44.90;24.20;;;;;;5047627;28;20025;-57
2023/08/28 00:37:26;;;;;;;1.92;1.67;;;44.80;23.80;;;;;;5047165;28;20028;-61
2023/08/28 00:39:53;;;;;;;3.00;2.22;;;44.80;23.60;;;;;;5055695;28;20067;-58
2023/08/28 00:42:21;;;;;;;1.67;0.50;;;44.70;23.60;;;;;;5047804;28;20353;-61
2023/08/28 00:44:47;;;;;;;2.40;0.60;;;44.70;23.20;;;;;;5053059;28;20355;-60
2023/08/28 00:47:14;;;;;;;1.70;0.50;;;44.60;23.60;;;;;;5051530;28;20093;-59
2023/08/28 00:49:41;;;;;;;0.52;0.50;;;44.60;23.40;;;;;;5049217;28;20511;-62
2023/08/28 00:52:09;;;;;;;1.02;0.90;;;44.40;24.10;;;;;;5049164;28;20540;-64
2023/08/28 00:54:39;;;;;;;1.45;1.02;;;44.40;23.80;;;;;;5048811;28;20019;-59
2023/08/28 00:57:05;;;;;;;5.53;0.80;;;44.30;23.90;;;;;;5047592;28;20476;-59
2023/08/28 00:59:32;;;;;;;3.53;0.85;;;44.20;24.40;;;;;;5047447;28;20082;-58
2023/08/28 01:01:59;;;;;;;7.60;0.88;;;44.20;24.00;;;;;;5050482;28;20024;-64
2023/08/28 01:04:25;;;;;;;0.55;0.55;;;44.20;24.10;;;;;;5052851;28;20039;-63
2023/08/28 01:07:12;;;;;;;4.32;0.70;;;44.00;23.60;;;;;;5050654;28;20020;-63
2023/08/28 01:09:59;;;;;;;3.00;0.90;;;43.80;23.80;;;;;;5041667;28;20033;-60
2023/08/28 01:12:50;;;;;;;1.33;0.80;;;43.70;24.50;;;;;;5047820;28;20025;-62
2023/08/28 01:15:23;;;;;;;1.05;0.68;;;43.60;24.60;;;;;;5046858;28;20021;-62
2023/08/28 01:17:55;;;;;;;2.20;0.60;;;43.50;24.10;;;;;;5047275;28;20103;-62
2023/08/28 01:20:24;;;;;;;8.10;0.82;;;43.40;24.50;;;;;;5048065;28;20033;-60
2023/08/28 01:23:18;;;;;;;2.08;0.70;;;43.30;24.80;;;;;;5047715;28;20021;-62
2023/08/28 01:25:45;;;;;;;1.98;0.65;;;43.20;24.20;;;;;;5051462;28;20013;-62
2023/08/28 01:28:12;;;;;;;0.60;0.60;;;43.20;23.90;;;;;;5047488;28;20074;-64
2023/08/28 01:30:38;;;;;;;4.85;2.00;;;43.00;24.10;;;;;;5049894;28;20055;-62
2023/08/28 01:33:05;;;;;;;16.25;3.63;;;42.90;26.30;;;;;;5047598;28;20057;-64
2023/08/28 01:35:32;;;;;;;5.53;1.60;;;42.80;38.40;;;;;;5050516;28;20066;-61
2023/08/28 01:38:07;;;;;;;3.38;2.45;;;42.60;28.50;;;;;;5046293;28;20016;-61
2023/08/28 01:40:38;;;;;;;3.63;1.55;;;42.40;26.40;;;;;;5047424;28;20020;-64
2023/08/28 01:43:10;;;;;;;2.25;1.30;;;42.20;30.20;;;;;;5046857;28;20013;-64
2023/08/28 01:45:38;;;;;;;1.90;0.90;;;42.10;28.30;;;;;;5047835;28;20421;-64
2023/08/28 01:48:06;;;;;;;2.20;0.98;;;41.90;27.70;;;;;;5047276;28;20013;-64
2023/08/28 01:50:33;;;;;;;5.82;0.95;;;41.90;29.40;;;;;;5047434;28;20381;-62
2023/08/28 01:52:59;;;;;;;4.43;1.10;;;41.80;28.00;;;;;;5047121;28;20020;-61
2023/08/28 01:55:46;;;;;;;1.27;1.10;;;41.70;28.30;;;;;;5047670;28;20021;-62
2023/08/28 01:58:15;;;;;;;9.48;1.50;;;41.60;27.60;;;;;;5025769;28;20532;-62
2023/08/28 02:00:42;;;;;;;3.30;1.10;;;41.40;26.60;;;;;;5048420;28;20075;-60
2023/08/28 02:03:10;;;;;;;3.08;1.10;;;41.30;27.30;;;;;;5048384;28;20389;-60
2023/08/28 02:05:36;;;;;;;5.78;1.10;;;41.20;27.50;;;;;;5047849;28;20017;-62
2023/08/28 02:08:03;;;;;;;6.55;1.42;;;41.00;27.70;;;;;;5051080;28;20079;-61
2023/08/28 02:10:29;;;;;;;11.25;1.42;;;41.00;26.30;;;;;;5046558;28;20056;-60
2023/08/28 02:12:56;;;;;;;6.18;1.10;;;40.90;27.70;;;;;;5047138;28;20032;-57
2023/08/28 02:15:22;;;;;;;2.42;1.20;;;40.80;27.40;;;;;;5048239;28;20025;-61
2023/08/28 02:17:49;;;;;;;9.00;1.33;;;40.70;27.60;;;;;;5046491;28;20558;-60
2023/08/28 02:20:15;;;;;;;3.70;0.95;;;40.60;27.40;;;;;;5047920;28;20033;-57
2023/08/28 02:22:42;;;;;;;6.93;1.40;;;40.40;27.10;;;;;;5047448;28;20397;-60
2023/08/28 02:25:09;;;;;;;4.05;1.75;;;40.30;27.00;;;;;;5050126;28;20009;-61
2023/08/28 02:27:35;;;;;;;9.23;1.83;;;40.20;26.70;;;;;;5047224;28;20009;-60
2023/08/28 02:30:01;;;;;;;4.93;1.23;;;40.20;27.70;;;;;;5052823;28;20024;-61
2023/08/28 02:32:28;;;;;;;5.45;1.25;;;40.10;28.40;;;;;;5045137;28;20017;-58
2023/08/28 02:34:54;;;;;;;7.18;2.00;;;40.10;28.00;;;;;;5046860;28;20029;-60
2023/08/28 02:37:21;;;;;;;4.88;1.85;;;40.00;28.20;;;;;;5047040;28;20024;-60
2023/08/28 02:39:48;;;;;;;9.75;2.13;;;39.90;28.50;;;;;;5046966;28;20037;-60
2023/08/28 02:42:15;;;;;;;14.68;2.67;;;39.90;28.50;;;;;;5046762;28;20012;-61
2023/08/28 02:44:42;;;;;;;10.15;2.53;;;39.80;28.10;;;;;;5054678;28;20096;-59
2023/08/28 02:47:08;;;;;;;11.32;2.78;;;39.70;28.10;;;;;;5048965;28;20011;-59
2023/08/28 02:49:34;;;;;;;18.55;2.75;;;39.60;28.70;;;;;;5046401;28;20021;-60
2023/08/28 02:52:01;;;;;;;11.15;2.28;;;39.50;28.90;;;;;;5046728;28;20500;-62
2023/08/28 02:54:27;;;;;;;11.10;2.40;;;39.40;30.00;;;;;;5051527;28;20029;-59
2023/08/28 02:56:54;;;;;;;7.10;2.10;;;39.30;29.80;;;;;;5052383;28;20031;-61
2023/08/28 02:59:20;;;;;;;6.25;2.15;;;39.20;29.80;;;;;;5047084;28;20032;-60
2023/08/28 03:01:46;;;;;;;16.75;3.10;;;39.10;29.70;;;;;;5048410;28;20013;-58
2023/08/28 03:04:13;;;;;;;13.48;2.75;;;39.00;29.40;;;;;;5047100;28;20160;-60
2023/08/28 03:06:40;;;;;;;17.70;3.47;;;38.90;29.70;;;;;;5048912;28;20369;-59
2023/08/28 03:09:14;;;;;;;13.57;3.08;;;38.80;29.40;;;;;;5046043;28;20112;-60
2023/08/28 03:11:40;;;;;;;15.90;3.65;;;38.70;29.30;;;;;;5047015;28;20469;-59
2023/08/28 03:14:07;;;;;;;14.50;3.90;;;38.60;29.80;;;;;;5045517;28;20100;-60
2023/08/28 03:16:34;;;;;;;13.23;4.95;;;38.60;29.70;;;;;;5046491;28;20469;-58
2023/08/28 03:19:00;;;;;;;14.90;5.70;;;38.50;29.00;;;;;;5048873;28;21319;-60
2023/08/28 03:21:27;;;;;;;12.93;4.97;;;38.40;29.10;;;;;;5046839;28;20102;-62
2023/08/28 03:23:53;;;;;;;17.55;5.20;;;38.40;29.80;;;;;;5047045;28;20021;-62
2023/08/28 03:26:20;;;;;;;20.90;5.32;;;38.30;30.00;;;;;;5046483;28;20036;-63
2023/08/28 03:28:46;;;;;;;16.13;5.90;;;38.30;30.10;;;;;;5045852;28;20500;-61
2023/08/28 03:31:12;;;;;;;21.90;5.85;;;38.20;30.90;;;;;;5046824;28;20024;-59
2023/08/28 03:33:39;;;;;;;24.60;6.88;;;38.20;31.30;;;;;;5045676;28;20048;-60
2023/08/28 03:36:07;;;;;;;27.08;6.72;;;38.10;31.20;;;;;;5046908;28;20025;-59
2023/08/28 03:38:34;;;;;;;28.88;6.68;;;38.00;31.50;;;;;;5048923;28;20024;-59
2023/08/28 03:41:00;;;;;;;26.58;6.95;;;38.00;32.90;;;;;;5050143;28;20017;-59
2023/08/28 03:43:27;;;;;;;17.85;6.63;;;37.90;32.70;;;;;;5049641;28;20045;-59
2023/08/28 03:45:53;;;;;;;21.85;6.70;;;37.90;32.90;;;;;;5053769;28;20085;-59
2023/08/28 03:48:19;;;;;;;40.75;7.55;;;37.80;32.90;;;;;;5050018;28;20862;-60
2023/08/28 03:50:46;;;;;;;33.63;7.22;;;38.10;33.50;;;;;;5048890;28;20381;-60
2023/08/28 03:53:13;;;;;;;36.33;8.38;;;38.90;33.20;;;;;;5048556;28;20514;-60
2023/08/28 03:55:39;;;;;;;54.70;8.82;;;39.30;32.90;;;;;;5051068;28;20389;-59
2023/08/28 03:58:07;;;;;;;43.88;8.25;;;39.40;32.80;;;;;;5046612;28;20103;-59
2023/08/28 04:00:33;;;;;;;42.72;8.80;;;39.40;32.90;;;;;;5048509;28;20029;-60
2023/08/28 04:03:00;;;;;;;36.45;7.50;;;39.50;33.20;;;;;;5049278;28;20025;-59
2023/08/28 04:05:26;;;;;;;43.38;7.63;;;39.50;32.70;;;;;;5051213;28;20021;-59
2023/08/28 04:07:53;;;;;;;43.58;7.40;;;39.50;32.90;;;;;;5050672;28;20028;-59
2023/08/28 04:10:20;;;;;;;49.78;7.75;;;39.30;32.90;;;;;;5053692;28;20028;-58
2023/08/28 04:12:46;;;;;;;23.40;7.50;;;39.40;33.30;;;;;;5049222;28;20469;-59
2023/08/28 04:15:13;;;;;;;37.38;7.80;;;39.20;33.00;;;;;;5047095;28;20400;-60
2023/08/28 04:17:39;;;;;;;31.60;8.07;;;39.20;33.20;;;;;;5052536;28;20020;-56
2023/08/28 04:20:16;;;;;;;35.95;8.05;;;39.20;33.00;;;;;;5049618;28;20033;-59
2023/08/28 04:22:44;;;;;;;28.30;7.28;;;39.30;33.50;;;;;;5049598;28;20021;-58
2023/08/28 04:25:11;;;;;;;34.67;8.02;;;39.10;32.80;;;;;;5049540;28;20040;-60
2023/08/28 04:27:38;;;;;;;35.83;7.40;;;39.10;33.30;;;;;;5050401;28;20092;-59
2023/08/28 04:30:06;;;;;;;38.15;7.55;;;39.00;33.00;;;;;;5048268;28;20100;-59
2023/08/28 04:32:33;;;;;;;30.92;7.32;;;38.90;33.10;;;;;;5047987;28;20040;-59
2023/08/28 04:35:00;;;;;;;51.83;7.63;;;39.00;33.00;;;;;;5060363;28;20056;-56
2023/08/28 04:37:27;;;;;;;33.65;6.45;;;39.00;33.00;;;;;;5048841;28;20569;-59
2023/08/28 04:39:53;;;;;;;44.17;7.78;;;38.90;32.90;;;;;;5047171;28;20032;-56
2023/08/28 04:42:20;;;;;;;35.67;6.72;;;38.80;32.60;;;;;;5050482;28;20405;-55
2023/08/28 04:44:47;;;;;;;30.20;6.35;;;38.60;33.10;;;;;;5048041;28;20009;-58
2023/08/28 04:47:13;;;;;;;31.85;6.78;;;38.70;32.10;;;;;;5050824;28;20397;-59
2023/08/28 04:49:40;;;;;;;26.23;5.85;;;38.60;31.10;;;;;;5045809;28;20013;-57
2023/08/28 04:52:07;;;;;;;36.88;6.47;;;38.50;30.30;;;;;;5047187;28;20017;-57
2023/08/28 04:54:36;;;;;;;23.08;7.40;;;38.50;28.80;;;;;;5050873;28;20519;-61
2023/08/28 04:57:03;;;;;;;23.50;7.22;;;38.50;28.10;;;;;;5047287;28;20020;-59
2023/08/28 04:59:29;;;;;;;19.83;6.30;;;38.70;28.40;;;;;;5047889;28;20384;-59
2023/08/28 05:01:55;;;;;;;20.15;6.47;;;38.70;28.50;;;;;;5049179;28;20066;-58
2023/08/28 05:04:22;;;;;;;32.95;6.35;;;38.80;28.90;;;;;;5050955;28;20029;-58
2023/08/28 05:06:49;;;;;;;18.02;5.95;;;38.80;29.30;;;;;;5055456;28;20014;-59
2023/08/28 05:09:15;;;;;;;14.95;4.80;;;38.70;29.50;;;;;;5048966;28;20195;-59
2023/08/28 05:11:41;;;;;;;24.60;5.10;;;38.70;29.80;;;;;;5049006;28;20018;-59
2023/08/28 05:14:11;;;;;;;23.90;5.38;;;38.70;30.00;;;;;;5047405;28;20024;-56
2023/08/28 05:16:37;;;;;;;22.90;5.38;;;38.70;30.00;;;;;;5047096;28;20021;-58
2023/08/28 05:19:04;;;;;;;23.90;5.10;;;38.60;30.30;;;;;;5048070;28;20539;-56
2023/08/28 05:21:30;;;;;;;17.67;4.38;;;38.60;30.80;;;;;;5049352;28;20496;-59
2023/08/28 05:23:57;;;;;;;10.05;3.47;;;38.60;31.30;;;;;;5047957;28;20025;-56
2023/08/28 05:26:23;;;;;;;8.48;2.40;;;38.50;31.80;;;;;;5049791;28;20078;-58
2023/08/28 05:28:50;;;;;;;10.13;2.78;;;38.40;33.10;;;;;;5048307;28;20025;-55
2023/08/28 05:31:16;;;;;;;6.22;2.42;;;38.30;34.20;;;;;;5047024;28;20100;-58
2023/08/28 05:33:43;;;;;;;4.60;2.33;;;38.20;34.80;;;;;;5047016;28;20035;-60
2023/08/28 05:36:09;;;;;;;12.25;2.05;;;38.10;35.20;;;;;;5049544;28;20017;-58
2023/08/28 05:38:35;;;;;;;4.85;1.88;;;38.00;35.70;;;;;;5047910;28;20029;-57
2023/08/28 05:41:03;;;;;;;7.47;2.13;;;37.80;35.80;;;;;;5045554;28;20412;-62
2023/08/28 05:43:29;;;;;;;10.38;2.15;;;37.70;36.10;;;;;;5050564;28;20365;-59
2023/08/28 05:45:56;;;;;;;5.90;2.33;;;37.60;36.50;;;;;;5049539;28;20119;-56
2023/08/28 05:48:22;;;;;;;9.20;2.20;;;37.50;36.90;;;;;;5048511;28;20426;-59
2023/08/28 05:50:51;;;;;;;8.68;2.40;;;37.40;37.10;;;;;;5047284;28;20066;-61
2023/08/28 05:53:18;;;;;;;5.18;2.33;;;37.30;37.40;;;;;;5046310;28;20067;-57
2023/08/28 05:55:45;;;;;;;3.90;1.98;;;37.20;37.10;;;;;;5046954;28;20488;-56
2023/08/28 05:58:12;;;;;;;9.77;2.25;;;37.10;37.40;;;;;;5053828;28;20095;-57
2023/08/28 06:00:38;;;;;;;5.80;2.53;;;37.10;37.50;;;;;;5051108;28;20029;-56
2023/08/28 06:03:06;;;;;;;6.40;2.30;;;37.00;37.50;;;;;;5058406;28;20036;-60
2023/08/28 06:05:32;;;;;;;8.02;2.30;;;36.90;37.80;;;;;;5046621;28;20005;-58
2023/08/28 06:07:59;;;;;;;5.80;2.55;;;36.90;38.10;;;;;;5055906;28;20023;-59
2023/08/28 06:10:28;;;;;;;6.22;2.53;;;36.90;38.00;;;;;;5046998;28;20670;-56
2023/08/28 06:12:54;;;;;;;3.75;2.30;;;36.90;38.10;;;;;;5047563;28;20035;-58
2023/08/28 06:15:21;;;;;;;6.88;2.60;;;36.80;38.30;;;;;;5048585;28;20013;-56
2023/08/28 06:17:49;;;;;;;7.88;3.10;;;36.80;37.80;;;;;;5048706;28;20017;-60
2023/08/28 06:20:16;;;;;;;7.45;2.50;;;36.70;37.30;;;;;;5051591;28;20520;-58
2023/08/28 06:22:43;;;;;;;9.05;2.20;;;36.70;37.60;;;;;;5050013;28;20027;-57
2023/08/28 06:25:09;;;;;;;8.13;2.80;;;36.70;37.20;;;;;;5054547;28;20040;-60
2023/08/28 06:27:36;;;;;;;8.82;2.53;;;36.60;38.00;;;;;;5046722;28;20373;-56
2023/08/28 06:30:04;;;;;;;5.85;2.50;;;36.70;37.10;;;;;;5045765;28;20020;-57
2023/08/28 06:32:30;;;;;;;8.68;2.45;;;36.70;37.40;;;;;;5045965;28;20070;-59
2023/08/28 06:34:57;;;;;;;6.95;3.00;;;36.60;37.00;;;;;;5046601;28;20100;-57
2023/08/28 06:37:24;;;;;;;8.10;2.88;;;36.70;37.00;;;;;;5048808;28;20219;-59
2023/08/28 06:39:52;;;;;;;6.05;2.65;;;36.60;37.10;;;;;;5047401;28;20029;-57
2023/08/28 06:42:19;;;;;;;9.93;2.83;;;36.60;36.90;;;;;;5046067;28;20441;-56
2023/08/28 06:44:45;;;;;;;9.57;2.70;;;36.60;37.20;;;;;;5046166;28;20041;-58
2023/08/28 06:47:13;;;;;;;5.13;2.75;;;36.60;37.00;;;;;;5049164;28;20025;-59
2023/08/28 06:49:39;;;;;;;6.32;2.95;;;36.60;36.80;;;;;;5045066;28;20029;-58
2023/08/28 06:52:08;;;;;;;6.47;2.65;;;36.50;36.90;;;;;;5046084;28;20036;-54
2023/08/28 06:54:35;;;;;;;8.25;2.88;;;36.60;37.30;;;;;;5046892;28;20021;-56
2023/08/28 06:57:01;;;;;;;10.40;3.25;;;36.50;37.20;;;;;;5045879;28;20060;-57
2023/08/28 06:59:27;;;;;;;5.57;2.63;;;36.60;37.10;;;;;;5045871;28;20079;-62
2023/08/28 07:01:54;;;;;;;7.07;2.80;;;36.50;37.00;;;;;;5046100;28;20013;-57
2023/08/28 07:04:20;;;;;;;8.85;2.97;;;36.50;36.90;;;;;;5052579;28;20037;-60
2023/08/28 07:06:47;;;;;;;5.93;2.80;;;36.60;37.70;;;;;;5046270;28;20059;-58
2023/08/28 07:09:13;;;;;;;5.43;2.95;;;36.60;37.00;;;;;;5046205;28;20055;-57
2023/08/28 07:11:39;;;;;;;7.22;2.95;;;36.60;36.70;;;;;;5046281;28;20017;-56
2023/08/28 07:14:07;;;;;;;7.22;3.03;;;36.60;36.80;;;;;;5049417;28;20017;-59
2023/08/28 07:16:33;;;;;;;10.98;3.20;;;36.60;37.10;;;;;;5055038;28;20045;-58
2023/08/28 07:19:00;;;;;;;4.50;2.95;;;36.50;37.10;;;;;;5052811;28;20087;-59
2023/08/28 07:21:27;;;;;;;7.30;3.40;;;36.60;36.90;;;;;;5050542;28;20017;-59
2023/08/28 07:23:53;;;;;;;6.53;3.17;;;36.50;37.20;;;;;;5048989;28;20055;-57
2023/08/28 07:26:19;;;;;;;7.85;3.90;;;36.50;37.50;;;;;;5050479;28;20032;-59
2023/08/28 07:28:48;;;;;;;6.38;3.30;;;36.50;37.00;;;;;;5048789;28;20021;-59
2023/08/28 07:31:15;;;;;;;7.68;2.97;;;36.50;37.00;;;;;;5048820;28;20116;-59
2023/08/28 07:33:42;;;;;;;7.45;3.22;;;36.40;37.20;;;;;;5049243;28;20027;-59
2023/08/28 07:36:08;;;;;;;7.20;2.75;;;36.40;37.00;;;;;;5048110;28;20481;-59
2023/08/28 07:38:35;;;;;;;8.88;2.90;;;36.40;37.00;;;;;;5049492;28;20036;-60
2023/08/28 07:41:01;;;;;;;5.45;2.88;;;36.40;37.00;;;;;;5050354;28;20619;-59
2023/08/28 07:43:28;;;;;;;10.35;2.97;;;36.30;37.70;;;;;;5048907;28;20095;-59
2023/08/28 07:45:55;;;;;;;6.30;2.70;;;36.20;37.60;;;;;;5057151;28;20009;-59
2023/08/28 07:48:21;;;;;;;6.47;2.88;;;36.20;37.40;;;;;;5049568;28;20520;-59
2023/08/28 07:50:47;;;;;;;7.57;3.35;;;36.20;37.20;;;;;;5046060;28;20499;-56
2023/08/28 07:53:14;;;;;;;4.95;3.20;;;36.10;37.20;;;;;;5050156;28;20021;-58
2023/08/28 07:55:41;;;;;;;6.68;2.50;;;36.10;37.50;;;;;;5050735;28;20020;-59
2023/08/28 07:58:09;;;;;;;14.75;2.80;;;36.00;37.10;;;;;;5047765;28;20064;-59
2023/08/28 08:00:36;;;;;;;4.03;2.53;;;36.00;38.00;;;;;;5056584;28;20029;-55
2023/08/28 08:03:03;;;;;;;5.78;2.70;;;36.00;37.50;;;;;;5050661;28;20029;-63
2023/08/28 08:05:32;;;;;;;8.93;2.60;;;35.90;37.10;;;;;;5050110;28;20005;-58
2023/08/28 08:07:59;;;;;;;6.70;3.03;;;35.90;36.90;;;;;;5050667;28;20017;-54
2023/08/28 08:10:26;;;;;;;4.97;2.70;;;35.90;36.70;;;;;;5049234;28;20100;-62
2023/08/28 08:12:52;;;;;;;5.90;2.88;;;35.90;36.60;;;;;;5051624;28;20499;-60
2023/08/28 08:15:19;;;;;;;6.60;2.80;;;35.90;36.60;;;;;;5049311;28;20030;-61
2023/08/28 08:17:45;;;;;;;3.50;2.30;;;35.90;36.30;;;;;;5048343;28;20017;-56
2023/08/28 08:20:12;;;;;;;10.23;2.65;;;35.90;36.20;;;;;;5051145;28;20021;-54
2023/08/28 08:22:40;;;;;;;4.28;2.30;;;36.00;36.30;;;;;;5046711;28;20024;-56
2023/08/28 08:25:09;;;;;;;4.28;2.22;;;35.90;36.00;;;;;;5058317;28;20322;-54
2023/08/28 08:27:37;;;;;;;5.95;2.70;;;36.00;36.20;;;;;;5049153;28;20028;-56
2023/08/28 08:30:06;;;;;;;7.35;2.35;;;36.00;36.20;;;;;;5048305;28;20017;-53
2023/08/28 08:32:33;;;;;;;6.47;2.65;;;35.90;36.50;;;;;;5047249;28;20635;-58
2023/08/28 08:34:59;;;;;;;5.80;2.78;;;35.90;36.30;;;;;;5047888;28;20507;-59
2023/08/28 08:37:28;;;;;;;6.38;2.38;;;35.90;36.50;;;;;;5049743;28;20028;-59
2023/08/28 08:39:55;;;;;;;4.47;2.08;;;35.90;36.40;;;;;;5048418;28;20584;-59
2023/08/28 08:42:21;;;;;;;7.53;2.25;;;35.90;36.40;;;;;;5049676;28;20381;-58
2023/08/28 08:44:48;;;;;;;5.30;2.22;;;35.80;36.20;;;;;;5048410;28;20013;-56
2023/08/28 08:47:16;;;;;;;10.70;2.35;;;35.80;36.60;;;;;;5052603;28;20017;-58
2023/08/28 08:49:44;;;;;;;2.63;2.03;;;35.80;36.20;;;;;;5051587;28;20115;-57
2023/08/28 08:52:15;;;;;;;8.43;2.70;;;35.80;36.20;;;;;;5046041;28;21802;-57
2023/08/28 08:54:43;;;;;;;3.05;2.35;;;35.80;36.10;;;;;;5052396;28;20017;-59
2023/08/28 08:57:28;;;;;;;7.38;2.38;;;35.80;36.10;;;;;;5047971;28;20485;-58
2023/08/28 08:59:55;;;;;;;6.18;2.40;;;35.80;36.60;;;;;;5048699;28;20029;-60
2023/08/28 09:02:21;;;;;;;6.25;2.22;;;35.70;36.80;;;;;;5048383;28;20385;-59
2023/08/28 09:04:49;;;;;;;4.72;2.58;;;35.70;36.90;;;;;;5047527;28;20094;-57
2023/08/28 09:07:17;;;;;;;5.30;2.58;;;35.60;36.90;;;;;;5048037;28;20005;-59
2023/08/28 09:09:43;;;;;;;6.35;2.30;;;35.60;37.10;;;;;;5047618;28;20032;-58
2023/08/28 09:12:10;;;;;;;4.60;2.25;;;35.60;37.00;;;;;;5047277;28;20044;-57
2023/08/28 09:14:37;;;;;;;9.75;2.70;;;35.60;36.70;;;;;;5054391;28;20013;-57
2023/08/28 09:17:03;;;;;;;5.97;2.45;;;35.50;36.80;;;;;;5046865;28;20009;-58
2023/08/28 09:19:31;;;;;;;4.30;2.45;;;35.50;36.50;;;;;;5048138;28;21391;-56
2023/08/28 09:21:57;;;;;;;4.88;2.78;;;35.50;37.60;;;;;;5047752;28;20099;-57
2023/08/28 09:24:24;;;;;;;8.32;2.35;;;35.40;37.90;;;;;;5046955;28;20346;-57
2023/08/28 09:26:52;;;;;;;4.82;2.40;;;35.40;38.40;;;;;;5048819;28;20020;-57
2023/08/28 09:29:23;;;;;;;8.43;2.75;;;35.30;38.40;;;;;;5047223;28;20444;-57
2023/08/28 09:32:03;;;;;;;4.57;2.85;;;35.20;38.20;;;;;;5047632;28;20070;-59
2023/08/28 09:34:41;;;;;;;6.55;2.70;;;35.10;38.00;;;;;;5047569;28;20047;-57
2023/08/28 09:37:11;;;;;;;8.35;2.70;;;35.20;38.10;;;;;;5045999;28;20020;-61
2023/08/28 09:39:41;;;;;;;5.38;2.63;;;35.20;38.10;;;;;;5047231;28;20080;-57
2023/08/28 09:42:09;;;;;;;2.60;2.20;;;35.10;38.10;;;;;;5045630;28;20037;-58
2023/08/28 09:44:37;;;;;;;6.47;2.50;;;35.10;37.70;;;;;;5052935;28;20095;-59
2023/08/28 09:47:04;;;;;;;5.90;2.53;;;35.10;38.00;;;;;;5046544;28;20013;-57
2023/08/28 09:49:31;;;;;;;5.20;2.70;;;35.10;37.90;;;;;;5046978;28;20489;-57
2023/08/28 09:52:00;;;;;;;4.20;2.25;;;35.10;38.10;;;;;;5047597;28;20496;-58
2023/08/28 09:54:26;;;;;;;5.55;2.30;;;35.10;37.60;;;;;;5050281;28;20025;-55
2023/08/28 09:56:53;;;;;;;5.07;2.60;;;35.10;37.60;;;;;;5045828;28;20063;-61
2023/08/28 09:59:19;;;;;;;6.05;2.50;;;35.10;37.70;;;;;;5048792;28;20037;-56
2023/08/28 10:01:48;;;;;;;6.78;2.88;;;35.10;37.80;;;;;;5046636;28;20021;-59
2023/08/28 10:04:19;;;;;;;7.20;2.80;;;35.10;37.70;;;;;;5046191;28;20107;-59
2023/08/28 10:06:49;;;;;;;6.10;2.22;;;35.00;38.10;;;;;;5046814;28;20056;-57
2023/08/28 10:09:19;;;;;;;9.32;2.38;;;35.00;38.20;;;;;;5047378;28;20017;-57
2023/08/28 10:11:47;;;;;;;5.20;2.50;;;34.90;38.20;;;;;;5049450;28;20040;-58
2023/08/28 10:14:14;;;;;;;4.22;2.40;;;34.90;38.30;;;;;;5050984;28;20029;-58
2023/08/28 10:16:57;;;;;;;7.25;2.53;;;34.90;38.30;;;;;;5046793;28;20469;-57
2023/08/28 10:19:47;;;;;;;5.75;2.25;;;34.90;38.20;;;;;;5046986;28;20123;-60
2023/08/28 10:22:14;;;;;;;4.95;2.30;;;34.70;38.40;;;;;;5038450;28;20029;-57
2023/08/28 10:24:42;;;;;;;3.50;2.45;;;34.70;38.80;;;;;;5047050;28;20021;-57
2023/08/28 10:27:10;;;;;;;7.22;2.70;;;34.70;38.90;;;;;;5045684;28;20350;-55
2023/08/28 10:29:38;;;;;;;8.52;2.65;;;34.60;38.90;;;;;;5046201;28;20028;-56
2023/08/28 10:32:10;;;;;;;2.70;2.45;;;34.60;39.50;;;;;;5046290;28;20018;-58
2023/08/28 10:34:40;;;;;;;4.55;2.60;;;34.60;39.10;;;;;;5046158;28;20021;-58
2023/08/28 10:37:11;;;;;;;4.03;2.45;;;34.50;39.30;;;;;;5046732;28;20021;-57
2023/08/28 10:39:42;;;;;;;9.38;2.78;;;34.50;39.60;;;;;;5046415;28;20017;-59
2023/08/28 10:42:19;;;;;;;5.40;2.65;;;34.40;39.80;;;;;;5046275;28;20017;-56
2023/08/28 10:44:47;;;;;;;5.10;2.50;;;34.40;40.30;;;;;;5053595;28;20013;-58
2023/08/28 10:47:19;;;;;;;6.30;2.20;;;34.40;40.20;;;;;;5048028;28;20028;-56
2023/08/28 10:49:46;;;;;;;7.68;2.65;;;34.30;40.10;;;;;;5049905;28;20078;-59
2023/08/28 10:52:13;;;;;;;6.05;3.03;;;34.20;40.40;;;;;;5050347;28;20496;-59
2023/08/28 10:54:48;;;;;;;6.93;2.60;;;34.10;40.60;;;;;;5050982;28;20504;-59
2023/08/28 10:57:26;;;;;;;4.75;2.25;;;34.10;41.20;;;;;;5049806;28;20501;-58
2023/08/28 10:59:53;;;;;;;5.93;2.20;;;34.10;40.90;;;;;;5048378;28;20536;-60
2023/08/28 11:02:20;;;;;;;5.18;2.30;;;34.00;40.70;;;;;;5049727;28;20100;-56
2023/08/28 11:04:47;;;;;;;4.00;2.40;;;34.00;40.80;;;;;;5049994;28;20112;-58
2023/08/28 11:07:22;;;;;;;4.15;2.40;;;33.90;40.80;;;;;;5049871;28;20051;-59
2023/08/28 11:10:19;;;;;;;5.35;2.33;;;33.90;40.80;;;;;;5049916;28;20013;-58
2023/08/28 11:12:56;;;;;;;5.95;2.40;;;33.90;40.80;;;;;;5048839;28;20021;-58
2023/08/28 11:15:43;;;;;;;6.40;2.40;;;33.80;41.50;;;;;;5051858;28;20530;-57
2023/08/28 11:18:28;;;;;;;5.68;2.65;;;33.80;41.40;;;;;;5049354;28;20025;-58
2023/08/28 11:21:03;;;;;;;8.02;2.75;;;33.70;42.00;;;;;;5052686;28;20481;-56
2023/08/28 11:23:36;;;;;;;4.20;2.45;;;33.60;41.70;;;;;;5049426;28;20009;-55
2023/08/28 11:26:18;;;;;;;6.20;2.58;;;33.60;41.30;;;;;;5049171;28;20158;-58
2023/08/28 11:28:49;;;;;;;3.42;2.33;;;33.60;41.30;;;;;;5047464;28;20067;-58
2023/08/28 11:31:16;;;;;;;2.95;2.25;;;33.50;41.70;;;;;;5048846;28;20094;-57
2023/08/28 11:33:49;;;;;;;5.70;2.20;;;33.50;42.00;;;;;;5049310;28;20083;-58
2023/08/28 11:36:19;;;;;;;4.07;2.55;;;33.50;41.30;;;;;;5049090;28;20021;-56
2023/08/28 11:38:49;;;;;;;7.65;2.28;;;33.40;41.80;;;;;;5049793;28;20024;-57
2023/08/28 11:41:16;;;;;;;4.43;2.22;;;33.40;41.80;;;;;;5049412;28;20074;-58
2023/08/28 11:43:44;;;;;;;6.60;2.28;;;33.30;42.30;;;;;;5049251;28;20515;-58
2023/08/28 11:46:12;;;;;;;6.82;2.50;;;33.30;41.20;;;;;;5054727;28;20386;-57
2023/08/28 11:48:43;;;;;;;6.10;2.40;;;33.20;41.60;;;;;;5048800;28;20055;-57
2023/08/28 11:51:10;;;;;;;5.60;2.20;;;33.20;41.90;;;;;;5048953;28;20103;-61
2023/08/28 11:53:40;;;;;;;5.68;2.30;;;33.10;42.30;;;;;;5048483;28;20013;-59
2023/08/28 11:56:11;;;;;;;2.67;2.08;;;33.10;42.20;;;;;;5047459;28;20049;-57
2023/08/28 11:58:40;;;;;;;5.30;2.40;;;33.00;42.50;;;;;;5048268;28;20062;-55
2023/08/28 12:01:08;;;;;;;2.63;2.20;;;32.90;42.80;;;;;;5049700;28;20029;-55
2023/08/28 12:03:37;;;;;;;4.97;2.47;;;32.80;42.70;;;;;;5049306;28;20435;-60
2023/08/28 12:06:09;;;;;;;4.82;1.98;;;32.70;43.00;;;;;;5048143;28;20020;-54
2023/08/28 12:08:41;;;;;;;5.70;2.75;;;32.70;43.10;;;;;;5048531;28;20017;-55
2023/08/28 12:11:15;;;;;;;6.85;2.53;;;32.70;43.20;;;;;;5047727;28;20029;-59
2023/08/28 12:13:41;;;;;;;8.25;2.67;;;32.70;43.50;;;;;;5053550;28;20453;-59
2023/08/28 12:16:17;;;;;;;17.80;2.65;;;32.70;43.90;;;;;;5048368;28;20024;-57
2023/08/28 12:18:52;;;;;;;7.63;2.50;;;32.70;43.80;;;;;;5048195;28;20013;-58
2023/08/28 12:21:37;;;;;;;5.32;2.38;;;32.60;44.10;;;;;;5048494;28;20519;-58
2023/08/28 12:24:06;;;;;;;5.53;2.58;;;32.60;44.10;;;;;;5047738;28;20531;-58
2023/08/28 12:26:36;;;;;;;8.15;2.50;;;32.60;44.20;;;;;;5047049;28;20013;-58
2023/08/28 12:29:04;;;;;;;9.82;2.65;;;32.50;44.80;;;;;;5048578;28;20461;-58
2023/08/28 12:31:34;;;;;;;13.05;2.90;;;32.50;43.70;;;;;;5048297;28;20021;-55
2023/08/28 12:34:08;;;;;;;9.65;2.85;;;32.50;43.90;;;;;;5047269;28;20051;-56
2023/08/28 12:36:45;;;;;;;8.25;2.72;;;32.40;44.10;;;;;;5057739;28;20017;-55
2023/08/28 12:39:16;;;;;;;14.50;2.80;;;32.40;44.40;;;;;;5048236;28;20548;-56
2023/08/28 12:41:55;;;;;;;7.63;2.42;;;32.30;44.20;;;;;;5046194;28;20018;-57
2023/08/28 12:44:22;;;;;;;8.85;3.10;;;32.30;44.50;;;;;;5052138;28;20017;-60
2023/08/28 12:46:49;;;;;;;10.45;3.28;;;32.20;44.80;;;;;;5047320;28;20013;-58
2023/08/28 12:49:19;;;;;;;6.85;2.88;;;32.20;45.20;;;;;;5048000;28;20017;-57